createdAt,value
2023-03-18T00:01:07.695Z,69.27
2023-03-18T00:03:40.754Z,70.50
2023-03-18T00:06:15.454Z,70.47
2023-03-18T00:08:50.791Z,71.28
2023-03-18T00:11:24.033Z,72.08
2023-03-18T00:13:58.116Z,71.36
2023-03-18T00:16:31.443Z,72.34
2023-03-18T00:19:05.210Z,72.36
2023-03-18T00:21:38.284Z,72.28
2023-03-18T00:24:13.016Z,72.60
2023-03-18T00:26:46.475Z,73.50
2023-03-18T00:29:19.728Z,73.18
2023-03-18T00:31:52.662Z,73.61
2023-03-18T00:34:26.073Z,74.30
2023-03-18T00:37:00.264Z,73.06
2023-03-18T00:39:35.749Z,73.03
2023-03-18T00:42:10.907Z,72.76
2023-03-18T00:44:45.261Z,73.58
2023-03-18T00:47:18.220Z,73.65
2023-03-18T00:49:51.503Z,73.72
2023-03-18T00:52:25.355Z,74.21
2023-03-18T00:55:00.191Z,73.12
2023-03-18T00:57:33.525Z,73.23
2023-03-18T01:00:07.653Z,72.94
2023-03-18T01:02:41.319Z,71.94
2023-03-18T01:05:14.784Z,70.91
2023-03-18T01:07:48.917Z,71.13
2023-03-18T01:10:23.384Z,70.97
2023-03-18T01:12:57.164Z,70.34
2023-03-18T01:15:30.722Z,70.68
2023-03-18T01:18:04.495Z,71.02
2023-03-18T01:20:38.108Z,71.18
2023-03-18T01:23:12.741Z,71.43
2023-03-18T01:25:47.529Z,70.34
2023-03-18T01:28:21.694Z,71.12
2023-03-18T01:30:55.295Z,71.39
2023-03-18T01:33:29.929Z,71.45
2023-03-18T01:36:03.849Z,71.33
2023-03-18T01:38:37.186Z,71.62
2023-03-18T01:41:12.176Z,71.89
2023-03-18T01:43:45.424Z,71.84
2023-03-18T01:46:33.684Z,72.26
2023-03-18T01:49:08.950Z,72.17
2023-03-18T01:51:43.220Z,72.50
2023-03-18T01:54:16.578Z,71.98
2023-03-18T01:56:51.867Z,72.55
2023-03-18T01:59:26.454Z,73.79
2023-03-18T02:02:03.357Z,75.44
2023-03-18T02:04:39.192Z,75.54
2023-03-18T02:07:15.676Z,76.61
2023-03-18T02:09:49.259Z,77.21
2023-03-18T02:12:25.540Z,77.08
2023-03-18T02:15:00.847Z,77.75
2023-03-18T02:17:35.539Z,78.78
2023-03-18T02:20:16.033Z,78.34
2023-03-18T02:22:52.190Z,78.86
2023-03-18T02:25:33.001Z,79.61
2023-03-18T02:28:09.899Z,79.57
2023-03-18T02:30:43.647Z,80.65
2023-03-18T02:33:17.953Z,80.68
2023-03-18T02:35:52.893Z,81.11
2023-03-18T02:38:26.485Z,81.99
2023-03-18T02:40:59.353Z,81.41
2023-03-18T02:43:34.330Z,82.84
2023-03-18T02:46:14.177Z,81.95
2023-03-18T02:48:49.009Z,82.00
2023-03-18T02:51:23.296Z,83.09
2023-03-18T02:53:56.713Z,81.83
2023-03-18T02:56:30.158Z,82.38
2023-03-18T02:59:04.716Z,82.59
2023-03-18T03:01:39.295Z,82.75
2023-03-18T03:04:12.541Z,82.21
2023-03-18T03:06:46.045Z,82.04
2023-03-18T03:09:19.926Z,82.44
2023-03-18T03:11:53.734Z,82.68
2023-03-18T03:14:30.117Z,81.84
2023-03-18T03:17:04.332Z,82.29
2023-03-18T03:19:37.288Z,82.51
2023-03-18T03:22:10.465Z,82.68
2023-03-18T03:24:43.341Z,82.48
2023-03-18T03:27:16.766Z,82.71
2023-03-18T03:29:51.240Z,83.87
2023-03-18T03:32:24.734Z,82.95
2023-03-18T03:34:57.656Z,84.23
2023-03-18T03:37:30.700Z,83.92
2023-03-18T03:40:06.200Z,84.28
2023-03-18T03:42:39.155Z,84.24
2023-03-18T03:45:14.999Z,84.25
2023-03-18T03:47:48.668Z,84.33
2023-03-18T03:50:21.795Z,84.90
2023-03-18T03:52:56.098Z,84.69
2023-03-18T03:55:29.355Z,85.41
2023-03-18T03:58:02.359Z,85.73
2023-03-18T04:00:37.212Z,86.10
2023-03-18T04:03:10.609Z,86.08
2023-03-18T04:05:43.987Z,86.95
2023-03-18T04:08:16.973Z,86.40
2023-03-18T04:10:49.880Z,86.36
2023-03-18T04:13:25.277Z,86.44
2023-03-18T04:16:00.991Z,86.40
2023-03-18T04:18:34.073Z,86.52
2023-03-18T04:21:08.121Z,86.74
2023-03-18T04:23:41.005Z,87.71
2023-03-18T04:26:13.972Z,86.37
2023-03-18T04:28:47.483Z,86.18
2023-03-18T04:31:22.001Z,86.75
2023-03-18T04:33:55.596Z,86.32
2023-03-18T04:36:29.369Z,85.56
2023-03-18T04:39:02.392Z,85.61
2023-03-18T04:41:35.263Z,84.91
2023-03-18T04:44:08.489Z,85.65
2023-03-18T04:46:43.682Z,85.59
2023-03-18T04:49:17.373Z,85.44
2023-03-18T04:51:50.291Z,85.51
2023-03-18T04:54:23.465Z,85.53
2023-03-18T04:56:56.666Z,85.13
2023-03-18T04:59:29.832Z,84.48
2023-03-18T05:02:04.830Z,84.77
2023-03-18T05:04:39.412Z,84.26
2023-03-18T05:07:13.717Z,83.74
2023-03-18T05:09:47.279Z,83.11
2023-03-18T05:12:22.788Z,83.00
2023-03-18T05:14:56.502Z,82.80
2023-03-18T05:17:31.362Z,83.80
2023-03-18T05:20:05.482Z,83.35
2023-03-18T05:22:38.621Z,83.29
2023-03-18T05:25:12.778Z,83.25
2023-03-18T05:27:47.658Z,82.97
2023-03-18T05:30:21.519Z,82.65
2023-03-18T05:32:56.191Z,82.68
2023-03-18T05:35:29.604Z,82.99
2023-03-18T05:38:02.720Z,81.56
2023-03-18T05:40:36.087Z,82.09
2023-03-18T05:43:09.280Z,81.80
2023-03-18T05:45:42.896Z,81.53
2023-03-18T05:48:17.572Z,80.84
2023-03-18T05:50:51.329Z,80.62
2023-03-18T05:53:24.482Z,80.37
2023-03-18T05:55:57.910Z,79.72
2023-03-18T05:58:31.474Z,78.83
2023-03-18T06:01:04.683Z,78.67
2023-03-18T06:03:39.085Z,77.85
2023-03-18T06:06:12.571Z,77.98
2023-03-18T06:08:45.315Z,78.37
2023-03-18T06:11:19.576Z,77.30
2023-03-18T06:13:53.024Z,76.71
2023-03-18T06:16:26.679Z,76.71
2023-03-18T06:19:01.192Z,76.46
2023-03-18T06:21:34.186Z,76.51
2023-03-18T06:24:07.825Z,75.06
2023-03-18T06:26:41.109Z,74.56
2023-03-18T06:29:14.210Z,73.92
2023-03-18T06:31:47.427Z,72.32
2023-03-18T06:34:21.685Z,72.03
2023-03-18T06:36:54.591Z,70.84
2023-03-18T06:39:28.558Z,70.47
2023-03-18T06:42:01.569Z,69.84
2023-03-18T06:44:35.441Z,69.27
2023-03-18T06:47:08.932Z,68.62
2023-03-18T06:49:43.308Z,68.52
2023-03-18T06:52:17.348Z,68.05
2023-03-18T06:54:50.610Z,66.63
2023-03-18T06:57:23.711Z,66.18
2023-03-18T06:59:57.260Z,64.45
2023-03-18T07:02:30.540Z,63.97
2023-03-18T07:05:04.889Z,62.85
2023-03-18T07:07:38.741Z,63.49
2023-03-18T07:10:17.292Z,65.29
2023-03-18T07:12:52.395Z,63.70
2023-03-18T07:15:26.538Z,62.02
2023-03-18T07:18:01.844Z,63.18
2023-03-18T07:20:36.770Z,61.95
2023-03-18T07:23:10.020Z,62.34
2023-03-18T07:25:44.826Z,62.20
2023-03-18T07:28:18.035Z,62.49
2023-03-18T07:30:53.954Z,59.94
2023-03-18T07:33:27.228Z,59.13
2023-03-18T07:36:01.794Z,58.47
2023-03-18T07:38:35.875Z,59.54
2023-03-18T07:41:09.555Z,59.77
2023-03-18T07:43:43.632Z,60.44
2023-03-18T07:46:16.587Z,59.36
2023-03-18T07:48:49.722Z,58.98
2023-03-18T07:51:24.200Z,59.20
2023-03-18T07:53:57.701Z,59.39
2023-03-18T07:56:30.920Z,58.60
2023-03-18T07:59:04.441Z,59.50
2023-03-18T08:01:37.463Z,57.78
2023-03-18T08:04:11.775Z,56.90
2023-03-18T08:06:46.168Z,57.82
2023-03-18T08:09:19.367Z,56.80
2023-03-18T08:12:02.814Z,58.71
2023-03-18T08:14:36.828Z,58.62
2023-03-18T08:17:10.062Z,58.33
2023-03-18T08:19:43.130Z,57.57
2023-03-18T08:22:17.811Z,58.13
2023-03-18T08:24:51.177Z,57.78
2023-03-18T08:27:24.108Z,57.99
2023-03-18T08:29:57.414Z,57.01
2023-03-18T08:32:30.724Z,58.42
2023-03-18T08:35:05.211Z,57.97
2023-03-18T08:37:39.806Z,59.67
2023-03-18T08:40:13.576Z,58.26
2023-03-18T08:42:46.914Z,57.78
2023-03-18T08:45:20.370Z,56.12
2023-03-18T08:47:53.833Z,55.53
2023-03-18T08:50:28.676Z,55.15
2023-03-18T08:53:04.036Z,53.65
2023-03-18T08:55:38.236Z,53.40
2023-03-18T08:58:11.707Z,51.66
2023-03-18T09:00:44.964Z,52.90
2023-03-18T09:03:17.870Z,52.75
2023-03-18T09:05:51.213Z,53.27
2023-03-18T09:08:25.853Z,52.93
2023-03-18T09:10:59.747Z,51.88
2023-03-18T09:13:34.160Z,51.43
2023-03-18T09:16:08.481Z,52.20
2023-03-18T09:18:44.449Z,54.27
2023-03-18T09:21:19.199Z,53.60
2023-03-18T09:23:53.561Z,53.98
2023-03-18T09:26:26.570Z,54.80
2023-03-18T09:28:59.548Z,55.11
2023-03-18T09:31:32.715Z,55.97
2023-03-18T09:34:07.192Z,56.17
2023-03-18T09:36:41.174Z,56.08
2023-03-18T09:39:15.439Z,55.68
2023-03-18T09:41:54.162Z,54.60
2023-03-18T09:44:29.536Z,55.73
2023-03-18T09:47:14.469Z,56.35
2023-03-18T09:49:54.048Z,57.63
2023-03-18T09:52:29.021Z,58.76
2023-03-18T09:55:05.966Z,60.11
2023-03-18T09:57:42.473Z,60.64
2023-03-18T10:00:20.571Z,60.43
2023-03-18T10:02:55.125Z,59.80
2023-03-18T10:05:31.431Z,60.15
2023-03-18T10:08:09.219Z,58.69
2023-03-18T10:10:46.220Z,56.92
2023-03-18T10:13:22.745Z,56.04
2023-03-18T10:15:58.086Z,55.61
2023-03-18T10:18:32.602Z,55.51
2023-03-18T10:21:11.606Z,54.63
2023-03-18T10:23:49.651Z,53.73
2023-03-18T10:26:28.756Z,53.54
2023-03-18T10:29:09.367Z,53.21
2023-03-18T10:31:48.852Z,53.94
2023-03-18T10:34:23.145Z,54.61
2023-03-18T10:36:59.400Z,54.09
2023-03-18T10:39:33.784Z,54.39
2023-03-18T10:42:19.396Z,53.24
2023-03-18T10:44:53.300Z,53.30
2023-03-18T10:47:29.417Z,54.04
2023-03-18T10:50:06.191Z,54.93
2023-03-18T10:52:41.832Z,54.81
2023-03-18T10:55:17.303Z,54.86
2023-03-18T10:57:52.491Z,55.23
2023-03-18T11:00:28.647Z,53.99
2023-03-18T11:03:02.724Z,54.47
2023-03-18T11:05:37.206Z,54.72
2023-03-18T11:08:29.519Z,54.60
2023-03-18T11:11:21.772Z,53.47
2023-03-18T11:13:58.241Z,54.66
2023-03-18T11:16:35.335Z,53.64
2023-03-18T11:19:10.261Z,53.15
2023-03-18T11:21:43.576Z,54.02
2023-03-18T11:24:36.219Z,53.54
2023-03-18T11:27:30.288Z,53.70
2023-03-18T11:30:18.696Z,53.50
2023-03-18T11:32:58.834Z,53.19
2023-03-18T11:35:34.972Z,51.95
2023-03-18T11:38:15.065Z,52.03
2023-03-18T11:40:48.769Z,51.74
2023-03-18T11:43:25.630Z,51.51
2023-03-18T11:46:01.811Z,50.70
2023-03-18T11:48:36.955Z,50.08
2023-03-18T11:51:24.596Z,49.37
2023-03-18T11:54:11.147Z,49.91
2023-03-18T11:56:47.857Z,49.43
2023-03-18T11:59:29.042Z,48.78
2023-03-18T12:02:17.851Z,48.28
2023-03-18T12:04:56.431Z,48.33
2023-03-18T12:07:41.669Z,48.95
2023-03-18T12:10:20.763Z,49.47
2023-03-18T12:13:01.999Z,47.21
2023-03-18T12:15:41.105Z,49.18
2023-03-18T12:18:24.334Z,47.89
2023-03-18T12:21:02.200Z,48.00
2023-03-18T12:23:41.312Z,47.78
2023-03-18T12:26:16.786Z,46.14
2023-03-18T12:29:02.106Z,45.67
2023-03-18T12:31:41.764Z,45.34
2023-03-18T12:34:21.323Z,46.32
2023-03-18T12:37:00.490Z,46.24
2023-03-18T12:39:54.287Z,45.52
2023-03-18T12:42:37.282Z,46.66
2023-03-18T12:45:11.312Z,45.41
2023-03-18T12:47:46.901Z,46.05
2023-03-18T12:50:23.000Z,46.21
2023-03-18T12:52:58.169Z,47.01
2023-03-18T12:55:32.666Z,46.34
2023-03-18T12:58:07.526Z,45.80
2023-03-18T13:00:45.371Z,46.34
2023-03-18T13:03:26.316Z,48.57
2023-03-18T13:06:05.132Z,48.04
2023-03-18T13:08:55.831Z,49.07
2023-03-18T13:11:46.597Z,49.09
2023-03-18T13:14:25.897Z,49.50
2023-03-18T13:17:00.390Z,48.76
2023-03-18T13:19:35.277Z,48.72
2023-03-18T13:22:17.925Z,49.01
2023-03-18T13:24:56.685Z,49.77
2023-03-18T13:27:35.836Z,49.19
2023-03-18T13:30:14.559Z,50.25
2023-03-18T13:33:05.167Z,48.71
2023-03-18T13:35:50.628Z,49.08
2023-03-18T13:38:33.834Z,49.40
2023-03-18T13:41:12.170Z,49.01
2023-03-18T13:43:49.490Z,47.64
2023-03-18T13:46:24.525Z,48.07
2023-03-18T13:48:58.887Z,47.98
2023-03-18T13:51:50.327Z,48.61
2023-03-18T13:54:25.868Z,48.64
2023-03-18T13:57:16.557Z,48.46
2023-03-18T13:59:50.601Z,48.02
2023-03-18T14:02:42.578Z,46.68
2023-03-18T14:05:42.661Z,48.24
2023-03-18T14:08:30.727Z,47.59
2023-03-18T14:11:23.137Z,47.15
2023-03-18T14:13:58.925Z,46.88
2023-03-18T14:16:52.954Z,46.14
2023-03-18T14:19:32.307Z,45.84
2023-03-18T14:22:09.352Z,46.22
2023-03-18T14:25:02.910Z,46.23
2023-03-18T14:27:45.685Z,46.18
2023-03-18T14:30:41.269Z,47.17
2023-03-18T14:33:33.213Z,46.33
2023-03-18T14:36:10.279Z,46.49
2023-03-18T14:38:47.309Z,46.81
2023-03-18T14:41:25.603Z,46.84
2023-03-18T14:44:10.033Z,46.81
2023-03-18T14:46:46.603Z,47.27
2023-03-18T14:49:43.246Z,46.37
2023-03-18T14:52:21.630Z,47.07
2023-03-18T14:54:56.122Z,46.62
2023-03-18T14:57:29.661Z,46.39
2023-03-18T15:00:06.616Z,46.21
2023-03-18T15:02:41.183Z,47.20
2023-03-18T15:05:16.619Z,45.76
2023-03-18T15:07:53.009Z,46.19
2023-03-18T15:10:27.979Z,46.03
2023-03-18T15:13:06.961Z,46.28
2023-03-18T15:15:41.376Z,46.59
2023-03-18T15:18:21.271Z,47.10
2023-03-18T15:20:56.378Z,47.22
2023-03-18T15:23:32.049Z,47.20
2023-03-18T15:26:09.394Z,45.53
2023-03-18T15:28:47.764Z,46.18
2023-03-18T15:31:28.457Z,46.82
2023-03-18T15:34:12.578Z,45.79
2023-03-18T15:36:46.715Z,45.79
2023-03-18T15:39:22.606Z,46.30
2023-03-18T15:41:57.085Z,47.08
2023-03-18T15:44:31.262Z,46.54
2023-03-18T15:47:08.256Z,47.03
2023-03-18T15:49:50.486Z,47.44
2023-03-18T15:52:25.442Z,46.75
2023-03-18T15:54:58.748Z,46.46
2023-03-18T15:57:34.753Z,47.37
2023-03-18T16:00:10.786Z,47.43
2023-03-18T16:02:44.366Z,47.52
2023-03-18T16:05:19.864Z,48.28
2023-03-18T16:07:54.239Z,48.46
2023-03-18T16:10:27.908Z,49.19
2023-03-18T16:13:04.050Z,50.12
2023-03-18T16:15:37.578Z,49.65
2023-03-18T16:18:10.847Z,50.47
2023-03-18T16:20:46.115Z,50.18
2023-03-18T16:23:19.108Z,50.82
2023-03-18T16:25:53.019Z,50.86
2023-03-18T16:28:28.166Z,51.36
2023-03-18T16:31:01.733Z,51.80
2023-03-18T16:33:35.686Z,52.41
2023-03-18T16:36:16.908Z,52.48
2023-03-18T16:38:50.713Z,52.58
2023-03-18T16:41:23.710Z,52.59
2023-03-18T16:43:56.683Z,53.71
2023-03-18T16:46:30.367Z,53.65
2023-03-18T16:49:03.483Z,53.75
2023-03-18T16:51:37.683Z,53.72
2023-03-18T16:54:21.067Z,53.75
2023-03-18T16:56:55.979Z,54.60
2023-03-18T16:59:30.606Z,54.23
2023-03-18T17:02:04.212Z,54.75
2023-03-18T17:04:38.238Z,54.01
2023-03-18T17:07:13.142Z,55.29
2023-03-18T17:09:46.719Z,55.01
2023-03-18T17:12:21.533Z,54.67
2023-03-18T17:14:56.502Z,55.35
2023-03-18T17:17:35.735Z,54.68
2023-03-18T17:20:16.111Z,54.65
2023-03-18T17:22:50.418Z,55.46
2023-03-18T17:25:25.629Z,55.65
2023-03-18T17:27:59.865Z,54.08
2023-03-18T17:30:34.622Z,54.40
2023-03-18T17:33:18.978Z,54.14
2023-03-18T17:35:52.858Z,54.91
2023-03-18T17:38:27.495Z,54.24
2023-03-18T17:41:01.153Z,55.29
2023-03-18T17:43:35.232Z,55.24
2023-03-18T17:46:08.889Z,55.90
2023-03-18T17:48:42.125Z,55.66
2023-03-18T17:51:17.005Z,55.64
2023-03-18T17:53:53.983Z,55.88
2023-03-18T17:56:27.980Z,54.91
2023-03-18T17:59:01.354Z,55.91
2023-03-18T18:01:34.397Z,55.38
2023-03-18T18:04:08.136Z,55.45
2023-03-18T18:06:41.677Z,55.99
2023-03-18T18:09:16.594Z,55.78
2023-03-18T18:11:51.027Z,56.44
2023-03-18T18:14:25.987Z,55.80
2023-03-18T18:16:59.616Z,56.09
2023-03-18T18:19:33.866Z,55.75
2023-03-18T18:22:07.522Z,56.36
2023-03-18T18:24:42.088Z,55.62
2023-03-18T18:27:15.487Z,55.81
2023-03-18T18:29:48.501Z,55.70
2023-03-18T18:32:24.803Z,54.94
2023-03-18T18:34:58.078Z,54.81
2023-03-18T18:37:31.769Z,55.45
2023-03-18T18:40:06.936Z,55.18
2023-03-18T18:42:41.890Z,54.83
2023-03-18T18:45:18.140Z,55.21
2023-03-18T18:47:51.829Z,54.79
2023-03-18T18:50:28.922Z,55.46
2023-03-18T18:53:02.007Z,54.42
2023-03-18T18:55:36.601Z,54.36
2023-03-18T18:58:16.724Z,55.57
2023-03-18T19:00:50.568Z,54.94
2023-03-18T19:03:25.134Z,55.22
2023-03-18T19:05:59.703Z,56.55
2023-03-18T19:08:36.055Z,56.59
2023-03-18T19:11:12.636Z,56.52
2023-03-18T19:13:49.031Z,56.92
2023-03-18T19:16:28.180Z,56.94
2023-03-18T19:19:01.547Z,56.70
2023-03-18T19:21:35.135Z,56.83
2023-03-18T19:24:20.277Z,56.29
2023-03-18T19:26:55.395Z,56.67
2023-03-18T19:29:29.066Z,55.99
2023-03-18T19:32:02.431Z,55.92
2023-03-18T19:34:35.574Z,55.97
2023-03-18T19:37:12.362Z,56.19
2023-03-18T19:39:46.032Z,55.95
2023-03-18T19:42:20.384Z,55.49
2023-03-18T19:44:53.547Z,55.91
2023-03-18T19:47:28.113Z,55.15
2023-03-18T19:50:01.752Z,55.23
2023-03-18T19:52:34.920Z,54.79
2023-03-18T19:55:13.932Z,54.93
2023-03-18T19:57:49.265Z,55.01
2023-03-18T20:00:24.446Z,54.00
2023-03-18T20:02:58.368Z,54.80
2023-03-18T20:05:31.958Z,54.58
2023-03-18T20:08:04.991Z,54.36
2023-03-18T20:10:38.452Z,54.52
2023-03-18T20:13:16.140Z,53.78
2023-03-18T20:15:50.061Z,54.74
2023-03-18T20:18:23.052Z,54.50
2023-03-18T20:20:56.143Z,53.74
2023-03-18T20:23:30.145Z,54.11
2023-03-18T20:26:03.324Z,54.81
2023-03-18T20:28:41.508Z,54.07
2023-03-18T20:31:15.549Z,52.69
2023-03-18T20:33:48.768Z,53.40
2023-03-18T20:36:21.837Z,53.58
2023-03-18T20:38:56.352Z,52.79
2023-03-18T20:41:29.680Z,53.51
2023-03-18T20:44:04.411Z,54.16
2023-03-18T20:46:37.392Z,53.92
2023-03-18T20:49:10.366Z,53.77
2023-03-18T20:51:44.279Z,54.96
2023-03-18T20:54:19.044Z,54.63
2023-03-18T20:56:52.469Z,54.67
2023-03-18T20:59:27.065Z,54.96
2023-03-18T21:02:00.189Z,55.29
2023-03-18T21:04:33.194Z,55.74
2023-03-18T21:07:06.482Z,55.54
2023-03-18T21:09:39.604Z,55.23
2023-03-18T21:12:16.981Z,55.54
2023-03-18T21:14:52.330Z,56.44
2023-03-18T21:17:27.346Z,56.42
2023-03-18T21:20:15.300Z,56.83
2023-03-18T21:22:54.323Z,56.27
2023-03-18T21:25:28.310Z,55.82
2023-03-18T21:28:01.317Z,57.04
2023-03-18T21:30:35.749Z,56.42
2023-03-18T21:33:18.288Z,56.37
2023-03-18T21:35:52.485Z,56.65
2023-03-18T21:38:26.424Z,56.38
2023-03-18T21:41:00.199Z,56.76
2023-03-18T21:43:34.409Z,57.18
2023-03-18T21:46:12.791Z,56.71
2023-03-18T21:48:46.798Z,56.39
2023-03-18T21:51:37.460Z,57.32
2023-03-18T21:54:17.704Z,56.53
2023-03-18T21:56:50.650Z,55.37
2023-03-18T21:59:23.585Z,55.37
2023-03-18T22:01:58.029Z,55.46
2023-03-18T22:04:31.656Z,55.57
2023-03-18T22:07:07.352Z,54.82
2023-03-18T22:09:41.965Z,54.80
2023-03-18T22:12:18.207Z,55.42
2023-03-18T22:14:51.652Z,54.19
2023-03-18T22:17:28.404Z,53.88
2023-03-18T22:20:02.634Z,54.49
2023-03-18T22:22:36.844Z,53.84
2023-03-18T22:25:17.372Z,53.95
2023-03-18T22:27:50.467Z,54.12
2023-03-18T22:30:24.026Z,53.91
2023-03-18T22:32:58.886Z,53.68
2023-03-18T22:35:32.097Z,53.97
2023-03-18T22:38:05.196Z,54.08
2023-03-18T22:40:42.147Z,53.90
2023-03-18T22:43:30.240Z,53.92
2023-03-18T22:46:04.025Z,53.51
2023-03-18T22:48:38.768Z,54.94
2023-03-18T22:51:19.151Z,54.03
2023-03-18T22:53:52.875Z,53.86
2023-03-18T22:56:25.766Z,54.22
2023-03-18T22:58:58.757Z,53.37
2023-03-18T23:01:32.036Z,54.13
2023-03-18T23:04:06.505Z,54.04
2023-03-18T23:06:39.589Z,54.12
2023-03-18T23:09:12.506Z,53.92
2023-03-18T23:11:47.493Z,53.92
2023-03-18T23:14:21.529Z,54.45
2023-03-18T23:16:54.888Z,54.66
2023-03-18T23:19:29.325Z,53.48
2023-03-18T23:22:02.544Z,53.60
2023-03-18T23:24:35.502Z,53.02
2023-03-18T23:27:08.980Z,53.17
2023-03-18T23:29:43.434Z,52.98
2023-03-18T23:32:17.407Z,52.92
2023-03-18T23:34:51.946Z,53.25
2023-03-18T23:37:25.484Z,52.68
2023-03-18T23:39:58.713Z,52.95
2023-03-18T23:42:31.666Z,53.85
2023-03-18T23:45:05.028Z,53.70
2023-03-18T23:47:38.313Z,54.10
2023-03-18T23:50:13.525Z,53.49
2023-03-18T23:52:46.537Z,54.64
2023-03-18T23:55:33.687Z,54.84
2023-03-18T23:58:13.053Z,54.44
